Zapata, Texas
Current Conditions -  °F | °C
As of 12:55 PM on Monday 20 Oct 2014 (Local Time) from KAPY Reporting Station
Broken Clouds Broken Clouds  
Wind Chill: 84°   Ceiling: 8500
Heat Index: 85°   Visibility: 10mi
Dew Point: 63°   Wind: 5mph
Humidity: 50%   Direction: 90°E
Pressure: 29.98"   Gusts: NA
Location:  26.91°N, 99.27°W
Report Text: KAPY 201755Z AUTO 09004KT 10SM SCT035 SCT060 BKN085 28/17 A2998 RMK AO2 T02870172
Loading
Personal Weather Stations






























Interactive Weather Map
Tropical Storm Tracking
New forecast layout! Learn more

10-Day Weather Forecast

Advertisements
Track Severe Weather on mobile